Tuckertown, South Carolina
Current Conditions -  °F | °C
As of 11:35 AM on Wednesday 26 Nov 2014 (Local Time) from KLUX Reporting Station
Broken Clouds Broken Clouds  
Wind Chill: 52°   Ceiling: 4200
Heat Index: 52°   Visibility: 10mi
Dew Point: 43°   Wind: 8mph
Humidity: 71%   Direction: 320°NW
Pressure: 30.03"   Gusts: NA
Location:  34.6017°N, 81.4953°W
Report Text: KLUX 261635Z AUTO 32007KT 10SM SCT015 BKN042 11/06 A3003 RMK AO2
Loading
Personal Weather Stations






























Interactive Weather Map New forecast layout! Learn more

10-Day Weather Forecast

Advertisements
Track Severe Weather on mobile